Address 0x8fcaa699af9f6bbff7fe8345c206c1c170296c2d 8

Overview

Balance:
25.242637683536351263 GLMR

GLMR Value:
$8.81 (@ $0.35/GLMR)

Token:
Txn Hash Method
Block
From
To
Value [Txn Fee]
0x06dc61692dee3e12dae70eaa28521167492cd5a260ed6467c7b5ff527fbf4aacTransfer*22897882022-11-13 16:30:4216 days 54 mins ago0x8fcaa699af9f6bbff7fe8345c206c1c170296c2dOUTMoonbeam: Crowdloan Rewards0 GLMR0.0056964845
0xcd5ae2b614d9e9136d6aed8431f525423b4ccec1e3ebc33256d7bc6ca83e65d8Swap Exact Token...22307132022-11-05 7:09:3024 days 10 hrs ago0x8fcaa699af9f6bbff7fe8345c206c1c170296c2dOUT StellaSwap: Router v2.10 GLMR0.0128601515
0x402047caa299ca567a75bc19b5f729b7f8c8e1b3263ff4073ec3bc3cf2d5f325Transfer*22307082022-11-05 7:08:2424 days 10 hrs ago0x8fcaa699af9f6bbff7fe8345c206c1c170296c2dOUT0xfffffffecb45afd30a637967995394cc88c0c1940 GLMR0.0036697325
0x2c1ec875f46b90980a07319bb3d604cc3891bd0f310637eedfdf47fdaed3bf00Remove Liquidity...22304602022-11-05 6:18:0624 days 11 hrs ago0x8fcaa699af9f6bbff7fe8345c206c1c170296c2dOUT StellaSwap: Router v2.10 GLMR0.018322171
0x37f76faa7b96b59ca0931f82e2774957af7a8c64a983e02d95e558c7e952dd5bApprove22304572022-11-05 6:17:3024 days 11 hrs ago0x8fcaa699af9f6bbff7fe8345c206c1c170296c2dOUT 0xa927e1e1e044ca1d9fe1854585003477331fe2af0 GLMR0.004721171
0x89172942683fdaeec8fd396a95879028acc123c0fdcfa6e57b96bc97ceac30acSwap ETH For Exa...18464032022-09-11 17:04:1279 days 21 mins ago0x8fcaa699af9f6bbff7fe8345c206c1c170296c2dOUT StellaSwap: Router v2.13.879424681580574 GLMR0.0122866765
0xa225308a5e612e18f9a62c39a2b3ce2e546e486311e5aed35bab86e4c553b7daApprove18463922022-09-11 17:01:5479 days 23 mins ago0x8fcaa699af9f6bbff7fe8345c206c1c170296c2dOUT StellaSwap: STELLA Token0 GLMR0.0047969915
0x935dcd03d7160cb9072ff20ebf08b0052b4bd149a06cbd560a2757416ddd599eWithdraw18463692022-09-11 16:57:1279 days 28 mins ago0x8fcaa699af9f6bbff7fe8345c206c1c170296c2dOUT 0xf3a5454496e26ac57da879bf3285fa85debf03880 GLMR0.0415730805
0xe2c32dffea37d44d5860574dda948901d120da0fd47f279cc73c0856fc85c8f2Deposit9575452022-05-04 17:21:24209 days 4 mins ago0x8fcaa699af9f6bbff7fe8345c206c1c170296c2dOUT 0xf3a5454496e26ac57da879bf3285fa85debf03880 GLMR0.0152502735
0xbc94cd2b3665a1d2725fd3b719002ef3cb3c9c0c3a7673fc63cbca2d9d922dedApprove9575072022-05-04 17:12:36209 days 13 mins ago0x8fcaa699af9f6bbff7fe8345c206c1c170296c2dOUT 0xa927e1e1e044ca1d9fe1854585003477331fe2af0 GLMR0.004721171
0xeb90827a6f7a20e7311981d6effc1676bb187b0a573bf20b2be4b4bb8fe4a30bZap In9575012022-05-04 17:11:18209 days 14 mins ago0x8fcaa699af9f6bbff7fe8345c206c1c170296c2dOUT 0x01834cf26717f0351d9762cc9cca7dc059d140df15 GLMR0.0278640845
0x2681cd169dc47dc634cf0d949bd9440a59f08f2885ef06fcddb2194c5ba00fcbApprove9574972022-05-04 17:10:24209 days 15 mins ago0x8fcaa699af9f6bbff7fe8345c206c1c170296c2dOUT Moonbeam: WGLMR Token0 GLMR0.004705946
0x4d81a6308febca5c916d6f1af81f2583ef31f9a6f307e9ed05a6878cee1ec5c6Withdraw9568012022-05-04 14:35:30209 days 2 hrs ago0x8fcaa699af9f6bbff7fe8345c206c1c170296c2dOUT Moonbeam: WGLMR Token0 GLMR0.0026332145
0x527f833e5ad6d330802ea7f09cfa70147d8087bcfea29c58ba4939549efa5f6eSwap Exact Token...9567662022-05-04 14:28:12209 days 2 hrs ago0x8fcaa699af9f6bbff7fe8345c206c1c170296c2dOUT Zenlink: Router0 GLMR0.01282854
0x98a00537232aaeaeb932f260b1b5af25cae943f4e90f1ee2f7ff68def5037c5cSwap Exact Token...9567452022-05-04 14:23:54209 days 3 hrs ago0x8fcaa699af9f6bbff7fe8345c206c1c170296c2dOUT Zenlink: Router0 GLMR0.012324558
0xee935bd798bc7a894b4f335bce818147da229ec464d8ba6d2a71f84c991c8580Approve9567382022-05-04 14:22:12209 days 3 hrs ago0x8fcaa699af9f6bbff7fe8345c206c1c170296c2dOUT Zenlink Network: ZLK Token0 GLMR0.004723824
0x1216b89bf626548a15027dbe6e667677c1dc4974da2c30061900fe93833d73f4Remove Liquidity...9567302022-05-04 14:20:36209 days 3 hrs ago0x8fcaa699af9f6bbff7fe8345c206c1c170296c2dOUT Zenlink: Router0 GLMR0.020705184
0x566c6edee5ecb28a435a71d2f45b3dec9672872eb193a6f32d026d42ed237236Claim9567152022-05-04 14:17:24209 days 3 hrs ago0x8fcaa699af9f6bbff7fe8345c206c1c170296c2dOUT 0xa226877393fc4e3b5f2b43a1bae3c5d72c918c2d0 GLMR0.013713594
0x65c9f23dbeea3b214643dbf88116035dde73d76ce550d2d7d5c6798241a879bbApprove9567092022-05-04 14:16:12209 days 3 hrs ago0x8fcaa699af9f6bbff7fe8345c206c1c170296c2dOUT 0x1eb802dfcc9e6d0b553c99c461f27d4000b46cef0 GLMR0.004725456
0x091bd301be6f09d3b768ab16407723f059f6715e5a57d8a833a4046046af3a18Redeem9567032022-05-04 14:15:00209 days 3 hrs ago0x8fcaa699af9f6bbff7fe8345c206c1c170296c2dOUT 0xa226877393fc4e3b5f2b43a1bae3c5d72c918c2d0 GLMR0.012210624
0x723200ecae1db65a895ec0d111c9e2e8c48879c71e899ff2b985a8a36d0f5741Transfer*7504612022-04-04 21:22:06238 days 20 hrs ago0x8fcaa699af9f6bbff7fe8345c206c1c170296c2dOUTMoonbeam: Crowdloan Rewards0 GLMR0.0056964845
0x17463d991ef78d30d1026a327085c984dcd515e6bf7a78dce2403bd9de502253Stake1798982022-01-12 16:11:06321 days 1 hr ago0x8fcaa699af9f6bbff7fe8345c206c1c170296c2dOUT 0xa226877393fc4e3b5f2b43a1bae3c5d72c918c2d0 GLMR0.019856544
0x9de10b77c43ed5e4ef6766be47876622772e630ba28cda8330a0ebad03e335e8Approve1798932022-01-12 16:10:06321 days 1 hr ago0x8fcaa699af9f6bbff7fe8345c206c1c170296c2dOUT 0x1eb802dfcc9e6d0b553c99c461f27d4000b46cef0 GLMR0.004511256
0x71ff372bdc22144941e7ee55e935f3851a9c02f58d7dcce85447033f23916641Add Liquidity Na...1798812022-01-12 16:07:42321 days 1 hr ago0x8fcaa699af9f6bbff7fe8345c206c1c170296c2dOUT Zenlink: Router3.3 GLMR0.017844594
0xe22edc9ab373720404d8c6ae95ba3a383624b32749c29be12c7c8c26122afa59Add Liquidity Na...1798732022-01-12 16:06:06321 days 1 hr ago0x8fcaa699af9f6bbff7fe8345c206c1c170296c2dOUT Zenlink: Router3.288887563338402 GLMR0.003762576
[ Download CSV Export 
Latest 9 internal transactions
Parent Txn Hash Block From To Value
0xcd5ae2b614d9e9136d6aed8431f525423b4ccec1e3ebc33256d7bc6ca83e65d822307132022-11-05 7:09:3024 days 10 hrs ago StellaSwap: Router v2.10x8fcaa699af9f6bbff7fe8345c206c1c170296c2d8.529471857083787368 GLMR
0x2c1ec875f46b90980a07319bb3d604cc3891bd0f310637eedfdf47fdaed3bf0022304602022-11-05 6:18:0624 days 11 hrs ago StellaSwap: Router v2.10x8fcaa699af9f6bbff7fe8345c206c1c170296c2d11.666380383194148607 GLMR
0x89172942683fdaeec8fd396a95879028acc123c0fdcfa6e57b96bc97ceac30ac18464032022-09-11 17:04:1279 days 21 mins ago StellaSwap: Router v2.10x8fcaa699af9f6bbff7fe8345c206c1c170296c2d0.016084770737509705 GLMR
0x935dcd03d7160cb9072ff20ebf08b0052b4bd149a06cbd560a2757416ddd599e18463692022-09-11 16:57:1279 days 28 mins ago 0xe76215efea540ea87a2e1a4bf63b1af6942481f30x8fcaa699af9f6bbff7fe8345c206c1c170296c2d0.568734609288164873 GLMR
0x4d81a6308febca5c916d6f1af81f2583ef31f9a6f307e9ed05a6878cee1ec5c69568012022-05-04 14:35:30209 days 2 hrs ago Moonbeam: WGLMR Token0x8fcaa699af9f6bbff7fe8345c206c1c170296c2d1.8838846681375178 GLMR
0x527f833e5ad6d330802ea7f09cfa70147d8087bcfea29c58ba4939549efa5f6e9567662022-05-04 14:28:12209 days 2 hrs ago Zenlink: Router0x8fcaa699af9f6bbff7fe8345c206c1c170296c2d6.624220491401615724 GLMR
0x98a00537232aaeaeb932f260b1b5af25cae943f4e90f1ee2f7ff68def5037c5c9567452022-05-04 14:23:54209 days 3 hrs ago Zenlink: Router0x8fcaa699af9f6bbff7fe8345c206c1c170296c2d1.945842153669363067 GLMR
0x1216b89bf626548a15027dbe6e667677c1dc4974da2c30061900fe93833d73f49567302022-05-04 14:20:36209 days 3 hrs ago Zenlink: Router0x8fcaa699af9f6bbff7fe8345c206c1c170296c2d6.441045607704589274 GLMR
0x71ff372bdc22144941e7ee55e935f3851a9c02f58d7dcce85447033f239166411798812022-01-12 16:07:42321 days 1 hr ago Zenlink: Router0x8fcaa699af9f6bbff7fe8345c206c1c170296c2d0.00000010882391045 GLMR
[ Download CSV Export 
Loading

Contract Name:
0

Compiler Version
0

Optimization Enabled:
0

Other Settings:
-NA-
Block Transaction Gas Used Reward
Age Block Fee Address BC Fee Address Voting Power Jailed Incoming
Block Uncle Number Difficulty Gas Used Reward
Loading
Make sure to use the "Vote Down" button for any spammy posts, and the "Vote Up" for interesting conversations.